sensor_id;sensor_type;location;lat;lon;timestamp;pressure;altitude;pressure_sealevel;temperature;humidity
54146;BME280;65909;49.422;7.738;2023-01-31T00:01:07;77756.84;;;-145.25;82.70
54146;BME280;65909;49.422;7.738;2023-01-31T00:03:33;77756.84;;;-145.25;83.32
54146;BME280;65909;49.422;7.738;2023-01-31T00:06:08;77746.81;;;-145.25;83.32
54146;BME280;65909;49.422;7.738;2023-01-31T00:08:33;77734.78;;;-145.25;83.22
54146;BME280;65909;49.422;7.738;2023-01-31T00:10:59;77748.81;;;-145.25;83.49
54146;BME280;65909;49.422;7.738;2023-01-31T00:13:24;77736.78;;;-145.25;83.57
54146;BME280;65909;49.422;7.738;2023-01-31T00:15:49;77748.81;;;-145.25;83.68
54146;BME280;65909;49.422;7.738;2023-01-31T00:18:15;77744.81;;;-145.25;84.24
54146;BME280;65909;49.422;7.738;2023-01-31T00:20:40;77752.81;;;-145.25;84.59
54146;BME280;65909;49.422;7.738;2023-01-31T00:23:05;77764.84;;;-145.25;84.69
54146;BME280;65909;49.422;7.738;2023-01-31T00:25:31;77768.88;;;-145.25;85.13
54146;BME280;65909;49.422;7.738;2023-01-31T00:27:57;77772.88;;;-145.25;85.60
54146;BME280;65909;49.422;7.738;2023-01-31T00:30:22;77776.88;;;-145.25;85.64
54146;BME280;65909;49.422;7.738;2023-01-31T00:32:47;77780.91;;;-145.25;86.00
54146;BME280;65909;49.422;7.738;2023-01-31T00:35:13;77778.91;;;-145.25;86.15
54146;BME280;65909;49.422;7.738;2023-01-31T00:37:38;77800.97;;;-145.25;86.38
54146;BME280;65909;49.422;7.738;2023-01-31T00:40:04;77813.00;;;-145.25;86.90
54146;BME280;65909;49.422;7.738;2023-01-31T00:42:29;77813.00;;;-145.25;87.31
54146;BME280;65909;49.422;7.738;2023-01-31T00:44:55;77829.03;;;-145.25;87.91
54146;BME280;65909;49.422;7.738;2023-01-31T00:47:20;77827.03;;;-145.25;87.70
54146;BME280;65909;49.422;7.738;2023-01-31T00:49:45;77823.00;;;-145.25;87.64
54146;BME280;65909;49.422;7.738;2023-01-31T00:52:11;77817.00;;;-145.25;87.65
54146;BME280;65909;49.422;7.738;2023-01-31T00:54:36;77817.00;;;-145.25;87.45
54146;BME280;65909;49.422;7.738;2023-01-31T00:57:01;77813.00;;;-145.25;87.22
54146;BME280;65909;49.422;7.738;2023-01-31T00:59:27;77808.97;;;-145.25;87.03
54146;BME280;65909;49.422;7.738;2023-01-31T01:01:52;77823.00;;;-145.25;87.21
54146;BME280;65909;49.422;7.738;2023-01-31T01:04:17;77829.03;;;-145.25;87.15
54146;BME280;65909;49.422;7.738;2023-01-31T01:06:46;77837.06;;;-145.25;87.69
54146;BME280;65909;49.422;7.738;2023-01-31T01:09:11;77837.06;;;-145.25;88.12
54146;BME280;65909;49.422;7.738;2023-01-31T01:11:37;77845.06;;;-145.25;88.20
54146;BME280;65909;49.422;7.738;2023-01-31T01:14:03;77851.09;;;-145.25;88.48
54146;BME280;65909;49.422;7.738;2023-01-31T01:16:36;77861.13;;;-145.25;88.68
54146;BME280;65909;49.422;7.738;2023-01-31T01:19:04;77871.16;;;-145.25;88.96
54146;BME280;65909;49.422;7.738;2023-01-31T01:21:32;77877.16;;;-145.25;89.18
54146;BME280;65909;49.422;7.738;2023-01-31T01:24:03;77881.19;;;-145.25;89.54
54146;BME280;65909;49.422;7.738;2023-01-31T01:26:30;77883.19;;;-145.25;89.32
54146;BME280;65909;49.422;7.738;2023-01-31T01:28:57;77891.19;;;-145.25;88.96
54146;BME280;65909;49.422;7.738;2023-01-31T01:31:23;77871.16;;;-145.25;88.43
54146;BME280;65909;49.422;7.738;2023-01-31T01:34:01;77875.16;;;-145.25;87.96
54146;BME280;65909;49.422;7.738;2023-01-31T01:36:27;77865.13;;;-145.25;87.81
54146;BME280;65909;49.422;7.738;2023-01-31T01:38:53;77867.13;;;-145.25;87.96
54146;BME280;65909;49.422;7.738;2023-01-31T01:41:19;77875.16;;;-145.25;88.00
54146;BME280;65909;49.422;7.738;2023-01-31T01:43:53;77875.16;;;-145.25;88.25
54146;BME280;65909;49.422;7.738;2023-01-31T01:46:40;77879.16;;;-145.25;88.74
54146;BME280;65909;49.422;7.738;2023-01-31T01:49:30;77873.16;;;-145.25;88.69
54146;BME280;65909;49.422;7.738;2023-01-31T01:51:59;77879.16;;;-145.25;88.51
54146;BME280;65909;49.422;7.738;2023-01-31T01:54:32;77873.16;;;-145.25;88.53
54146;BME280;65909;49.422;7.738;2023-01-31T01:57:01;77871.16;;;-145.25;88.43
54146;BME280;65909;49.422;7.738;2023-01-31T01:59:35;77875.16;;;-145.25;88.66
54146;BME280;65909;49.422;7.738;2023-01-31T02:02:02;77857.09;;;-145.25;88.85
54146;BME280;65909;49.422;7.738;2023-01-31T02:04:33;77847.09;;;-145.25;88.64
54146;BME280;65909;49.422;7.738;2023-01-31T02:07:00;77855.09;;;-145.25;88.62
54146;BME280;65909;49.422;7.738;2023-01-31T02:09:52;77853.09;;;-145.25;89.17
54146;BME280;65909;49.422;7.738;2023-01-31T02:12:19;77855.09;;;-145.25;88.74
54146;BME280;65909;49.422;7.738;2023-01-31T02:14:45;77865.13;;;-145.25;88.96
54146;BME280;65909;49.422;7.738;2023-01-31T02:17:16;77861.13;;;-145.25;89.28
54146;BME280;65909;49.422;7.738;2023-01-31T02:22:46;77871.16;;;-145.25;89.01
54146;BME280;65909;49.422;7.738;2023-01-31T02:25:37;77881.19;;;-145.25;89.08
54146;BME280;65909;49.422;7.738;2023-01-31T02:33:54;77913.25;;;-145.25;89.26
54146;BME280;65909;49.422;7.738;2023-01-31T02:39:10;77911.25;;;-145.25;89.36
54146;BME280;65909;49.422;7.738;2023-01-31T02:41:51;77921.28;;;-145.25;89.29
54146;BME280;65909;49.422;7.738;2023-01-31T02:44:36;77933.31;;;-145.25;89.67
54146;BME280;65909;49.422;7.738;2023-01-31T02:47:49;77941.34;;;-145.25;90.12
54146;BME280;65909;49.422;7.738;2023-01-31T02:50:30;77945.34;;;-145.25;89.92
54146;BME280;65909;49.422;7.738;2023-01-31T02:53:30;77937.34;;;-145.25;89.70
54146;BME280;65909;49.422;7.738;2023-01-31T02:56:03;77939.34;;;-145.25;89.19
54146;BME280;65909;49.422;7.738;2023-01-31T02:59:06;77947.34;;;-145.25;88.97
54146;BME280;65909;49.422;7.738;2023-01-31T03:01:37;77955.38;;;-145.25;89.23
54146;BME280;65909;49.422;7.738;2023-01-31T03:04:09;77971.44;;;-145.25;89.33
54146;BME280;65909;49.422;7.738;2023-01-31T03:15:16;77991.47;;;-145.25;89.41
54146;BME280;65909;49.422;7.738;2023-01-31T03:22:34;78001.50;;;-145.25;89.29
54146;BME280;65909;49.422;7.738;2023-01-31T03:25:03;77995.50;;;-145.25;89.00
54146;BME280;65909;49.422;7.738;2023-01-31T03:27:30;77983.47;;;-145.25;88.43
54146;BME280;65909;49.422;7.738;2023-01-31T03:30:00;77977.44;;;-145.25;88.27
54146;BME280;65909;49.422;7.738;2023-01-31T03:32:33;77987.47;;;-145.25;88.30
54146;BME280;65909;49.422;7.738;2023-01-31T03:35:00;77999.50;;;-145.25;88.46
54146;BME280;65909;49.422;7.738;2023-01-31T03:37:47;77993.50;;;-145.25;88.53
54146;BME280;65909;49.422;7.738;2023-01-31T03:40:34;78003.53;;;-145.25;88.29
54146;BME280;65909;49.422;7.738;2023-01-31T03:43:24;78005.53;;;-145.25;88.51
54146;BME280;65909;49.422;7.738;2023-01-31T03:45:56;78007.53;;;-145.25;88.65
54146;BME280;65909;49.422;7.738;2023-01-31T03:48:29;78015.56;;;-145.25;88.87
54146;BME280;65909;49.422;7.738;2023-01-31T03:50:58;78013.53;;;-145.25;88.61
54146;BME280;65909;49.422;7.738;2023-01-31T03:53:31;78007.53;;;-145.25;88.35
54146;BME280;65909;49.422;7.738;2023-01-31T03:58:30;77999.50;;;-145.25;88.08
54146;BME280;65909;49.422;7.738;2023-01-31T04:00:58;78011.53;;;-145.25;88.10
54146;BME280;65909;49.422;7.738;2023-01-31T04:03:37;78029.59;;;-145.25;87.68
54146;BME280;65909;49.422;7.738;2023-01-31T04:06:04;78013.53;;;-145.25;87.62
54146;BME280;65909;49.422;7.738;2023-01-31T04:08:31;78019.56;;;-145.25;87.88
54146;BME280;65909;49.422;7.738;2023-01-31T04:10:57;78031.59;;;-145.25;88.01
54146;BME280;65909;49.422;7.738;2023-01-31T04:13:23;78039.63;;;-145.25;87.99
54146;BME280;65909;49.422;7.738;2023-01-31T04:15:49;78043.63;;;-145.25;88.00
54146;BME280;65909;49.422;7.738;2023-01-31T04:18:14;78043.63;;;-145.25;88.63
54146;BME280;65909;49.422;7.738;2023-01-31T04:20:39;78041.63;;;-145.25;88.49
54146;BME280;65909;49.422;7.738;2023-01-31T04:23:05;78039.63;;;-145.25;88.33
54146;BME280;65909;49.422;7.738;2023-01-31T04:25:30;78045.63;;;-145.25;88.24
54146;BME280;65909;49.422;7.738;2023-01-31T04:27:55;78047.66;;;-145.25;87.95
54146;BME280;65909;49.422;7.738;2023-01-31T04:30:21;78033.59;;;-145.25;87.96
54146;BME280;65909;49.422;7.738;2023-01-31T04:32:46;78017.56;;;-145.25;86.97
54146;BME280;65909;49.422;7.738;2023-01-31T04:35:12;78013.53;;;-145.25;86.69
54146;BME280;65909;49.422;7.738;2023-01-31T04:37:37;78001.50;;;-145.25;85.93
54146;BME280;65909;49.422;7.738;2023-01-31T04:40:02;77989.47;;;-145.25;85.87
54146;BME280;65909;49.422;7.738;2023-01-31T04:42:28;77993.50;;;-145.25;86.16
54146;BME280;65909;49.422;7.738;2023-01-31T04:44:53;77997.50;;;-145.25;86.39
54146;BME280;65909;49.422;7.738;2023-01-31T04:47:19;78009.53;;;-145.25;86.72
54146;BME280;65909;49.422;7.738;2023-01-31T04:49:44;77995.50;;;-145.25;86.88
54146;BME280;65909;49.422;7.738;2023-01-31T04:52:10;77989.47;;;-145.25;86.58
54146;BME280;65909;49.422;7.738;2023-01-31T04:54:35;77997.50;;;-145.25;86.40
54146;BME280;65909;49.422;7.738;2023-01-31T04:57:01;77997.50;;;-145.25;86.47
54146;BME280;65909;49.422;7.738;2023-01-31T04:59:26;78007.53;;;-145.25;86.64
54146;BME280;65909;49.422;7.738;2023-01-31T05:01:52;78005.53;;;-145.25;86.28
54146;BME280;65909;49.422;7.738;2023-01-31T05:04:17;78013.53;;;-145.25;86.13
54146;BME280;65909;49.422;7.738;2023-01-31T05:06:42;78009.53;;;-145.25;85.89
54146;BME280;65909;49.422;7.738;2023-01-31T05:09:08;78015.56;;;-145.25;85.73
54146;BME280;65909;49.422;7.738;2023-01-31T05:11:33;78011.53;;;-145.25;85.63
54146;BME280;65909;49.422;7.738;2023-01-31T05:13:59;78005.53;;;-145.25;85.73
54146;BME280;65909;49.422;7.738;2023-01-31T05:16:24;78001.50;;;-145.25;85.34
54146;BME280;65909;49.422;7.738;2023-01-31T05:18:49;78013.53;;;-145.25;85.47
54146;BME280;65909;49.422;7.738;2023-01-31T05:21:15;78009.53;;;-145.25;85.32
54146;BME280;65909;49.422;7.738;2023-01-31T05:23:41;78009.53;;;-145.25;85.21
54146;BME280;65909;49.422;7.738;2023-01-31T05:26:06;77997.50;;;-145.25;84.85
54146;BME280;65909;49.422;7.738;2023-01-31T05:28:32;77999.50;;;-145.25;84.91
54146;BME280;65909;49.422;7.738;2023-01-31T05:31:02;78011.53;;;-145.25;84.92
54146;BME280;65909;49.422;7.738;2023-01-31T05:33:28;78019.56;;;-145.25;85.37
54146;BME280;65909;49.422;7.738;2023-01-31T05:35:56;78019.56;;;-145.25;85.12
54146;BME280;65909;49.422;7.738;2023-01-31T05:38:21;77999.50;;;-145.25;84.96
54146;BME280;65909;49.422;7.738;2023-01-31T05:40:48;78013.53;;;-145.25;84.81
54146;BME280;65909;49.422;7.738;2023-01-31T05:43:14;78025.59;;;-145.25;85.35
54146;BME280;65909;49.422;7.738;2023-01-31T05:45:40;78021.56;;;-145.25;85.45
54146;BME280;65909;49.422;7.738;2023-01-31T05:48:05;78021.56;;;-145.25;85.66
54146;BME280;65909;49.422;7.738;2023-01-31T05:50:30;78025.59;;;-145.25;85.60
54146;BME280;65909;49.422;7.738;2023-01-31T05:52:57;78027.59;;;-145.25;85.59
54146;BME280;65909;49.422;7.738;2023-01-31T05:55:27;78021.56;;;-145.25;85.61
54146;BME280;65909;49.422;7.738;2023-01-31T05:57:53;78027.59;;;-145.25;85.79
54146;BME280;65909;49.422;7.738;2023-01-31T06:00:19;78025.59;;;-145.25;85.71
54146;BME280;65909;49.422;7.738;2023-01-31T06:02:45;78023.56;;;-145.25;85.74
54146;BME280;65909;49.422;7.738;2023-01-31T06:05:12;78009.53;;;-145.25;85.46
54146;BME280;65909;49.422;7.738;2023-01-31T06:07:40;78023.56;;;-145.25;85.61
54146;BME280;65909;49.422;7.738;2023-01-31T06:10:07;78017.56;;;-145.25;85.68
54146;BME280;65909;49.422;7.738;2023-01-31T06:12:33;78031.59;;;-145.25;85.78
54146;BME280;65909;49.422;7.738;2023-01-31T06:14:59;78031.59;;;-145.25;85.94
54146;BME280;65909;49.422;7.738;2023-01-31T06:17:24;78025.59;;;-145.25;86.22
54146;BME280;65909;49.422;7.738;2023-01-31T06:19:49;78023.56;;;-145.25;85.92
54146;BME280;65909;49.422;7.738;2023-01-31T06:22:16;78027.59;;;-145.25;85.93
54146;BME280;65909;49.422;7.738;2023-01-31T06:24:41;78025.59;;;-145.25;85.92
54146;BME280;65909;49.422;7.738;2023-01-31T06:27:07;78031.59;;;-145.25;85.73
54146;BME280;65909;49.422;7.738;2023-01-31T06:29:32;78025.59;;;-145.25;85.75
54146;BME280;65909;49.422;7.738;2023-01-31T06:31:57;78037.63;;;-145.25;85.92
54146;BME280;65909;49.422;7.738;2023-01-31T06:34:23;78039.63;;;-145.25;85.92
54146;BME280;65909;49.422;7.738;2023-01-31T06:36:48;78037.63;;;-145.25;85.80
54146;BME280;65909;49.422;7.738;2023-01-31T06:39:14;78041.63;;;-145.25;86.18
54146;BME280;65909;49.422;7.738;2023-01-31T06:41:39;78033.59;;;-145.25;85.92
54146;BME280;65909;49.422;7.738;2023-01-31T06:44:05;78031.59;;;-145.25;85.94
54146;BME280;65909;49.422;7.738;2023-01-31T06:46:30;78025.59;;;-145.25;85.80
54146;BME280;65909;49.422;7.738;2023-01-31T06:48:55;78029.59;;;-145.25;85.81
54146;BME280;65909;49.422;7.738;2023-01-31T06:51:21;78025.59;;;-145.25;85.73
54146;BME280;65909;49.422;7.738;2023-01-31T06:53:47;78033.59;;;-145.25;85.89
54146;BME280;65909;49.422;7.738;2023-01-31T06:56:12;78029.59;;;-145.25;85.90
54146;BME280;65909;49.422;7.738;2023-01-31T06:58:37;78041.63;;;-145.25;85.97
54146;BME280;65909;49.422;7.738;2023-01-31T07:01:07;78045.63;;;-145.25;86.29
54146;BME280;65909;49.422;7.738;2023-01-31T07:03:32;78053.66;;;-145.25;86.17
54146;BME280;65909;49.422;7.738;2023-01-31T07:05:58;78057.66;;;-145.25;86.49
54146;BME280;65909;49.422;7.738;2023-01-31T07:08:23;78049.66;;;-145.25;86.23
54146;BME280;65909;49.422;7.738;2023-01-31T07:10:48;78065.69;;;-145.25;86.36
54146;BME280;65909;49.422;7.738;2023-01-31T07:13:14;78053.66;;;-145.25;86.51
54146;BME280;65909;49.422;7.738;2023-01-31T07:15:40;78063.69;;;-145.25;86.61
54146;BME280;65909;49.422;7.738;2023-01-31T07:18:06;78065.69;;;-145.25;86.67
54146;BME280;65909;49.422;7.738;2023-01-31T07:20:31;78071.72;;;-145.25;86.63
54146;BME280;65909;49.422;7.738;2023-01-31T07:22:57;78051.66;;;-145.25;86.67
54146;BME280;65909;49.422;7.738;2023-01-31T07:25:24;78049.66;;;-145.25;86.06
54146;BME280;65909;49.422;7.738;2023-01-31T07:27:49;78029.59;;;-145.25;85.57
54146;BME280;65909;49.422;7.738;2023-01-31T07:30:15;78027.59;;;-145.25;85.35
54146;BME280;65909;49.422;7.738;2023-01-31T07:32:41;78023.56;;;-145.25;85.15
54146;BME280;65909;49.422;7.738;2023-01-31T07:35:06;78017.56;;;-145.25;84.83
54146;BME280;65909;49.422;7.738;2023-01-31T07:37:32;78007.53;;;-145.25;84.37
54146;BME280;65909;49.422;7.738;2023-01-31T07:39:57;77993.50;;;-145.25;84.17
54146;BME280;65909;49.422;7.738;2023-01-31T07:42:23;77981.47;;;-145.25;83.69
54146;BME280;65909;49.422;7.738;2023-01-31T07:44:48;77955.38;;;-145.25;83.17
54146;BME280;65909;49.422;7.738;2023-01-31T07:47:13;77925.31;;;-145.25;82.42
54146;BME280;65909;49.422;7.738;2023-01-31T07:49:39;77937.34;;;-145.25;82.75
54146;BME280;65909;49.422;7.738;2023-01-31T07:52:04;77945.34;;;-145.25;82.51
54146;BME280;65909;49.422;7.738;2023-01-31T07:54:29;77949.38;;;-145.25;82.25
54146;BME280;65909;49.422;7.738;2023-01-31T07:56:55;77923.28;;;-145.25;82.07
54146;BME280;65909;49.422;7.738;2023-01-31T07:59:20;77939.34;;;-145.25;82.21
54146;BME280;65909;49.422;7.738;2023-01-31T08:01:45;77925.31;;;-145.25;81.50
54146;BME280;65909;49.422;7.738;2023-01-31T08:04:29;77921.28;;;-145.25;81.64
54146;BME280;65909;49.422;7.738;2023-01-31T08:06:55;77927.31;;;-145.25;81.29
54146;BME280;65909;49.422;7.738;2023-01-31T08:09:21;77917.28;;;-145.25;80.35
54146;BME280;65909;49.422;7.738;2023-01-31T08:11:47;77915.28;;;-145.25;80.92
54146;BME280;65909;49.422;7.738;2023-01-31T08:14:13;77901.22;;;-145.25;80.67
54146;BME280;65909;49.422;7.738;2023-01-31T08:16:38;77905.25;;;-145.25;80.36
54146;BME280;65909;49.422;7.738;2023-01-31T08:19:04;77903.25;;;-145.25;80.56
54146;BME280;65909;49.422;7.738;2023-01-31T08:21:30;77897.22;;;-145.25;80.63
54146;BME280;65909;49.422;7.738;2023-01-31T08:23:55;77909.25;;;-145.25;80.79
54146;BME280;65909;49.422;7.738;2023-01-31T08:26:21;77895.22;;;-145.25;80.33
54146;BME280;65909;49.422;7.738;2023-01-31T08:28:48;77907.25;;;-145.25;80.32
54146;BME280;65909;49.422;7.738;2023-01-31T08:31:17;77905.25;;;-145.25;80.28
54146;BME280;65909;49.422;7.738;2023-01-31T08:33:43;77915.28;;;-145.25;80.34
54146;BME280;65909;49.422;7.738;2023-01-31T08:36:13;77907.25;;;-145.25;79.88
54146;BME280;65909;49.422;7.738;2023-01-31T08:38:39;77921.28;;;-145.25;79.78
54146;BME280;65909;49.422;7.738;2023-01-31T08:41:05;77913.25;;;-145.25;79.69
54146;BME280;65909;49.422;7.738;2023-01-31T08:43:30;77921.28;;;-145.25;80.40
54146;BME280;65909;49.422;7.738;2023-01-31T08:45:56;77917.28;;;-145.25;79.80
54146;BME280;65909;49.422;7.738;2023-01-31T08:48:22;77921.28;;;-145.25;79.85
54146;BME280;65909;49.422;7.738;2023-01-31T08:50:47;77925.31;;;-145.25;79.72
54146;BME280;65909;49.422;7.738;2023-01-31T08:53:12;77943.34;;;-145.25;79.94
54146;BME280;65909;49.422;7.738;2023-01-31T08:55:38;77925.31;;;-145.25;79.64
54146;BME280;65909;49.422;7.738;2023-01-31T08:58:03;77919.28;;;-145.25;79.25
54146;BME280;65909;49.422;7.738;2023-01-31T09:00:28;77903.25;;;-145.25;79.40
54146;BME280;65909;49.422;7.738;2023-01-31T09:02:58;77875.16;;;-145.25;77.53
54146;BME280;65909;49.422;7.738;2023-01-31T09:05:25;77879.16;;;-145.25;77.98
54146;BME280;65909;49.422;7.738;2023-01-31T09:07:51;77857.09;;;-145.25;78.24
54146;BME280;65909;49.422;7.738;2023-01-31T09:10:18;77895.22;;;-145.25;78.23
54146;BME280;65909;49.422;7.738;2023-01-31T09:12:43;77911.25;;;-145.25;79.31
54146;BME280;65909;49.422;7.738;2023-01-31T09:15:09;77893.22;;;-145.25;79.31
54146;BME280;65909;49.422;7.738;2023-01-31T09:17:34;77887.19;;;-145.25;79.20
54146;BME280;65909;49.422;7.738;2023-01-31T09:20:00;77895.22;;;-145.25;79.41
54146;BME280;65909;49.422;7.738;2023-01-31T09:22:31;77897.22;;;-145.25;79.70
54146;BME280;65909;49.422;7.738;2023-01-31T09:24:56;77875.16;;;-145.25;79.41
54146;BME280;65909;49.422;7.738;2023-01-31T09:27:25;77891.19;;;-145.25;80.14
54146;BME280;65909;49.422;7.738;2023-01-31T09:29:50;77891.19;;;-145.25;79.75
54146;BME280;65909;49.422;7.738;2023-01-31T09:32:16;77895.22;;;-145.25;80.14
54146;BME280;65909;49.422;7.738;2023-01-31T09:34:41;77891.19;;;-145.25;80.05
54146;BME280;65909;49.422;7.738;2023-01-31T09:37:06;77901.22;;;-145.25;79.99
54146;BME280;65909;49.422;7.738;2023-01-31T09:39:32;77907.25;;;-145.25;80.26
54146;BME280;65909;49.422;7.738;2023-01-31T09:42:05;77907.25;;;-145.25;81.04
54146;BME280;65909;49.422;7.738;2023-01-31T09:44:41;77903.25;;;-145.25;80.93
54146;BME280;65909;49.422;7.738;2023-01-31T09:47:19;77913.25;;;-145.25;81.32
54146;BME280;65909;49.422;7.738;2023-01-31T09:49:55;77901.22;;;-145.25;81.39
54146;BME280;65909;49.422;7.738;2023-01-31T09:52:22;77893.22;;;-145.25;81.36
54146;BME280;65909;49.422;7.738;2023-01-31T09:54:48;77881.19;;;-145.25;82.02
54146;BME280;65909;49.422;7.738;2023-01-31T09:57:40;77869.13;;;-145.25;81.89
54146;BME280;65909;49.422;7.738;2023-01-31T10:00:28;77883.19;;;-145.25;81.89
54146;BME280;65909;49.422;7.738;2023-01-31T10:11:27;77873.16;;;-145.25;81.50
54146;BME280;65909;49.422;7.738;2023-01-31T10:16:50;77857.09;;;-145.25;81.49
54146;BME280;65909;49.422;7.738;2023-01-31T10:19:31;77867.13;;;-145.25;82.13
54146;BME280;65909;49.422;7.738;2023-01-31T10:22:06;77863.13;;;-145.25;81.91
54146;BME280;65909;49.422;7.738;2023-01-31T10:24:42;77869.13;;;-145.25;82.34
54146;BME280;65909;49.422;7.738;2023-01-31T10:27:39;77869.13;;;-145.25;82.59
54146;BME280;65909;49.422;7.738;2023-01-31T10:30:15;77861.13;;;-145.25;82.36
54146;BME280;65909;49.422;7.738;2023-01-31T10:32:42;77849.09;;;-145.25;82.39
54146;BME280;65909;49.422;7.738;2023-01-31T10:35:26;77841.06;;;-145.25;82.51
54146;BME280;65909;49.422;7.738;2023-01-31T10:37:59;77821.00;;;-145.25;82.59
54146;BME280;65909;49.422;7.738;2023-01-31T10:40:36;77841.06;;;-145.25;82.80
54146;BME280;65909;49.422;7.738;2023-01-31T10:43:15;77843.06;;;-145.25;83.04
54146;BME280;65909;49.422;7.738;2023-01-31T10:45:42;77841.06;;;-145.25;83.02
54146;BME280;65909;49.422;7.738;2023-01-31T10:48:21;77817.00;;;-145.25;82.73
54146;BME280;65909;49.422;7.738;2023-01-31T10:51:32;77808.97;;;-145.25;82.42
54146;BME280;65909;49.422;7.738;2023-01-31T10:57:16;77784.91;;;-145.25;81.84
54146;BME280;65909;49.422;7.738;2023-01-31T10:59:45;77758.84;;;-145.25;81.72
54146;BME280;65909;49.422;7.738;2023-01-31T11:02:25;77756.84;;;-145.25;81.73
54146;BME280;65909;49.422;7.738;2023-01-31T11:04:53;77754.81;;;-145.25;81.50
54146;BME280;65909;49.422;7.738;2023-01-31T11:07:20;77752.81;;;-145.25;81.72
54146;BME280;65909;49.422;7.738;2023-01-31T11:09:51;77758.84;;;-145.25;81.94
54146;BME280;65909;49.422;7.738;2023-01-31T11:12:37;77750.81;;;-145.25;81.89
54146;BME280;65909;49.422;7.738;2023-01-31T11:15:14;77742.78;;;-145.25;81.58
54146;BME280;65909;49.422;7.738;2023-01-31T11:17:42;77732.75;;;-145.25;81.71
54146;BME280;65909;49.422;7.738;2023-01-31T11:20:20;77722.75;;;-145.25;82.25
54146;BME280;65909;49.422;7.738;2023-01-31T11:22:46;77720.72;;;-145.25;82.20
54146;BME280;65909;49.422;7.738;2023-01-31T11:25:21;77736.78;;;-145.25;82.23
54146;BME280;65909;49.422;7.738;2023-01-31T11:27:48;77740.78;;;-145.25;82.21
54146;BME280;65909;49.422;7.738;2023-01-31T11:32:52;77722.75;;;-145.25;81.86
54146;BME280;65909;49.422;7.738;2023-01-31T11:37:56;77712.72;;;-145.25;82.43
54146;BME280;65909;49.422;7.738;2023-01-31T11:40:33;77704.69;;;-145.25;82.43
54146;BME280;65909;49.422;7.738;2023-01-31T11:43:33;77696.66;;;-145.25;81.91
54146;BME280;65909;49.422;7.738;2023-01-31T11:45:59;77688.66;;;-145.25;81.42
54146;BME280;65909;49.422;7.738;2023-01-31T11:48:39;77684.63;;;-145.25;81.61
54146;BME280;65909;49.422;7.738;2023-01-31T11:51:06;77676.63;;;-145.25;81.84
54146;BME280;65909;49.422;7.738;2023-01-31T11:53:37;77672.59;;;-145.25;81.48
54146;BME280;65909;49.422;7.738;2023-01-31T11:56:15;77666.59;;;-145.25;81.75
54146;BME280;65909;49.422;7.738;2023-01-31T11:58:42;77654.56;;;-145.25;81.43
54146;BME280;65909;49.422;7.738;2023-01-31T12:01:18;77648.53;;;-145.25;81.13
54146;BME280;65909;49.422;7.738;2023-01-31T12:03:47;77656.56;;;-145.25;80.69
54146;BME280;65909;49.422;7.738;2023-01-31T12:06:29;77662.56;;;-145.25;80.53
54146;BME280;65909;49.422;7.738;2023-01-31T12:08:57;77652.56;;;-145.25;80.69
54146;BME280;65909;49.422;7.738;2023-01-31T12:11:34;77648.53;;;-145.25;80.61
54146;BME280;65909;49.422;7.738;2023-01-31T12:16:28;77630.50;;;-145.25;80.12
54146;BME280;65909;49.422;7.738;2023-01-31T12:24:32;77592.38;;;-145.25;79.49
54146;BME280;65909;49.422;7.738;2023-01-31T12:30:05;77564.31;;;-145.25;78.88
54146;BME280;65909;49.422;7.738;2023-01-31T12:40:42;77548.25;;;-145.25;78.44
54146;BME280;65909;49.422;7.738;2023-01-31T12:46:07;77552.28;;;-145.25;79.04
54146;BME280;65909;49.422;7.738;2023-01-31T12:51:35;77538.25;;;-145.25;79.36
54146;BME280;65909;49.422;7.738;2023-01-31T13:04:54;77534.22;;;-145.25;79.74
54146;BME280;65909;49.422;7.738;2023-01-31T13:07:29;77542.25;;;-145.25;79.59
54146;BME280;65909;49.422;7.738;2023-01-31T13:09:59;77516.19;;;-145.25;79.82
54146;BME280;65909;49.422;7.738;2023-01-31T13:12:29;77520.19;;;-145.25;80.04
54146;BME280;65909;49.422;7.738;2023-01-31T13:17:28;77496.13;;;-145.25;80.28
54146;BME280;65909;49.422;7.738;2023-01-31T13:19:57;77480.09;;;-145.25;80.89
54146;BME280;65909;49.422;7.738;2023-01-31T13:22:28;77484.09;;;-145.25;81.01
54146;BME280;65909;49.422;7.738;2023-01-31T13:25:21;77498.13;;;-145.25;81.58
54146;BME280;65909;49.422;7.738;2023-01-31T13:27:58;77470.06;;;-145.25;80.71
54146;BME280;65909;49.422;7.738;2023-01-31T13:30:42;77486.09;;;-145.25;81.07
54146;BME280;65909;49.422;7.738;2023-01-31T13:33:29;77476.06;;;-145.25;81.61
54146;BME280;65909;49.422;7.738;2023-01-31T13:36:10;77472.06;;;-145.25;82.09
54146;BME280;65909;49.422;7.738;2023-01-31T13:38:42;77472.06;;;-145.25;82.31
54146;BME280;65909;49.422;7.738;2023-01-31T13:41:30;77476.06;;;-145.25;82.72
54146;BME280;65909;49.422;7.738;2023-01-31T13:43:56;77492.13;;;-145.25;83.24
54146;BME280;65909;49.422;7.738;2023-01-31T13:46:28;77488.09;;;-145.25;83.84
54146;BME280;65909;49.422;7.738;2023-01-31T13:49:01;77480.09;;;-145.25;83.81
54146;BME280;65909;49.422;7.738;2023-01-31T13:51:40;77474.06;;;-145.25;85.31
54146;BME280;65909;49.422;7.738;2023-01-31T13:54:31;77480.09;;;-145.25;86.69
54146;BME280;65909;49.422;7.738;2023-01-31T13:56:58;77476.06;;;-145.25;87.33
54146;BME280;65909;49.422;7.738;2023-01-31T13:59:35;77472.06;;;-145.25;86.46
54146;BME280;65909;49.422;7.738;2023-01-31T14:02:04;77472.06;;;-145.25;86.74
54146;BME280;65909;49.422;7.738;2023-01-31T14:04:35;77472.06;;;-145.25;86.80
54146;BME280;65909;49.422;7.738;2023-01-31T14:09:37;77468.06;;;-145.25;87.86
54146;BME280;65909;49.422;7.738;2023-01-31T14:22:22;77468.06;;;-145.25;93.17
54146;BME280;65909;49.422;7.738;2023-01-31T14:27:23;77488.09;;;-145.25;95.11
54146;BME280;65909;49.422;7.738;2023-01-31T14:30:06;77500.13;;;-145.25;96.28
54146;BME280;65909;49.422;7.738;2023-01-31T14:38:14;77492.13;;;-145.25;97.68
54146;BME280;65909;49.422;7.738;2023-01-31T14:43:44;77492.13;;;-145.25;99.39